Upper Freehold, New Jersey
Current Conditions -  °F | °C
As of 11:58 PM on Monday 20 Oct 2014 (Local Time) from KWRI Reporting Station
Few Clouds Few Clouds  
Wind Chill: 51°   Ceiling: Unl
Heat Index: 51°   Visibility: 10mi
Dew Point: 45°   Wind: 5mph
Humidity: 78%   Direction: 200°SSW
Pressure: 29.95"   Gusts: NA
Location:  40.1432°N, 74.5751°W
Report Text: KWRI 210358Z AUTO 20004KT 10SM FEW190 11/07 A2995 RMK AO2 SLPNO T01060070
Loading
Personal Weather Stations






























Interactive Weather Map
Tropical Storm Tracking
New forecast layout! Learn more

10-Day Weather Forecast

Advertisements
Track Severe Weather on mobile